Racecast

Ada Reichhardt

Thompson Valley (CO) · 12 · NORTHERNCO D4A4A · Compare head to head

Athlete rating 126.8 2025 TF season
Best race 126.8 TF
Races 49
Seasons 6 2018 — 2025

RankedNation #7677·CO #219·CO D4A #108·NORTHERN #5·Team #11 ?

Rating scale ?
Speed rating — all races

Cross Country

XC speed rating

2024 XC 117.3

Thompson Valley (CO) · Grade 12

Date Meet Event Result Place Rating Difficulty PR/SR Flags
2024-11-23 Toka Sticks Golf Course 5000m 20:44 51st · 4th on team 120.5 +0.009 ★CR SR CSR
2024-11-02 Norris Penrose Event Center 5000m 21:21.2 98th · 6th on team 122.5 +0.067 ★CR CSR RSR
2024-09-20 Lincoln Park Golf Course 5000m 21:07.7 60th · 5th on team 115.5 -0.012 ★CR SR CSR
2024-08-31 Fort Collins High School 5000m 21:57 54th · 5th on team 116.2 +0.023 ★CR SR CSR RSR
2024-08-24 Mountain Vista High School 3218m 14:36 54th · 4th on team 111.7 +0.067 ★CR SR CSR RSR

2023 XC 117.6

Thompson Valley (CO) · Grade 11

Date Meet Event Result Place Rating Difficulty PR/SR Flags
2023-11-18 Coyote Run Golf Course at Leisure World 5000m 20:36.8 42nd · 2nd on team 123.7 +0.029 ★PR ★CR R SR CSR RSR
2023-10-28 Norris Penrose Event Center 5000m 21:21.5 89th · 3rd on team 122.2 +0.067 CR R CSR RSR
2023-10-19 Monfort Park 5000m 21:09.9 8th · 3rd on team 120.4 +0.019 ★CR SR CSR RSR
2023-09-03 Little America Golf Course 5000m 23:19.2 106th · 3rd on team 113.3 +0.065 SR CSR RSR
2023-08-19 Berthoud High School 3218m 14:18.1 23rd · 5th on team 108.2 +0.007 ★PR ★CR SR CSR RSR

2022 XC 115.7

Thompson Valley (CO) · Grade 10

Date Meet Event Result Place Rating Difficulty PR/SR Flags
2022-11-19 Coyote Run Golf Course at Leisure World 5000m 21:37.5 65th · 3rd on team 118.7 +0.029 CR SR CSR RSR
2022-10-20 Lyons Middle/High School 5000m 22:59 22nd · 3rd on team 112.5 +0.046
2022-10-12 Riverside Park 5000m 21:59.9 30th · 3rd on team 114.3 +0.005 CSR
2022-09-30 North Lake Park 5000m 21:55 30th · 3rd on team 118.3 +0.041 ★CR SR CSR RSR
2022-09-17 Lyons Middle/High School 5000m 22:53.8 150th · 3rd on team 114.3 +0.046 CSR
2022-09-03 Little America Golf Course 5000m 22:27.7 61st · 2nd on team 117.5 +0.065 ★CR CSR RSR
2022-08-27 Fort Collins High School 5000m 22:43 44th · 2nd on team 112.9 +0.023 CR CSR
2022-08-20 Spring Canyon Park 5000m 22:02 29th · 2nd on team 116.9 +0.037 ★CR SR CSR RSR

2021 XC 114.1

Thompson Valley (CO) · Grade 9

Date Meet Event Result Place Rating Difficulty PR/SR Flags
2021-11-20 Shalimar Country Club 5000m 20:54.8 65th · 5th on team 120.7 +0.005 PR ★CR R SR CSR RSR
2021-10-21 Lyons Middle/High School 5000m 21:55.5 23rd · 4th on team 120.0 +0.046 ★CR R CSR RSR
2021-10-13 Riverside Park 5000m 21:36.6 26th · 6th on team 116.8 +0.005 PR ★CR SR CSR
2021-09-25 River's Edge Natural Area 5000m 22:50 17th · 6th on team 110.7 +0.003 ★CR CSR
2021-09-11 Cattails Golf Course 5000m 23:46.6 77th · 6th on team 107.6 +0.012 ★CR CSR
2021-09-04 Berthoud High School 3200m 13:40.8 22nd · 6th on team 113.6 +0.007 ★PR ★CR SR CSR
2021-08-28 Cherry Creek State Park 5000m 22:22.7 79th · 5th on team 117.1 +0.033 PR ★CR R SR CSR RSR
2021-08-21 Spring Canyon Park 5000m 24:25 18th · 5th on team 106.1 +0.037 PR CR SR CSR RSR

2018 XC 86.6

Walt Clark (CO) · Grade 6

Date Meet Event Result Place Rating Difficulty PR/SR Flags
2018-10-20 Fehringer Ranch Park 3500m 16:23.9 28th · 1st on team 114.8 +0.019 ★PR ★CR R SR CSR RSR
2018-09-21 North Lake Park 1931m 16:39 59th · 13th on team 58.5 ★PR ★CR R SR CSR RSR

Track & Field

TF speed rating

2025 TF 122.5

Thompson Valley (CO) · Grade 12

Date Meet Event Result Place Rating Difficulty PR/SR Flags
2025-05-10 Teddy's Last Chance Qualifier 1600m 5:41.68 24th · 1st on team 121.8 -0.014 ★PR SR
2025-04-30 Longs Peak and Rocky Mountain League Meet 800m 2:30.06 9th · 3rd on team 124.5 -0.014
2025-04-30 Longs Peak and Rocky Mountain League Meet 1600m 5:46.29 8th · 3rd on team 120.0 -0.014 PR SR
2025-04-19 Randall Hess Roughrider Invitational 800m 2:36.79 36th · 3rd on team 119.3 -0.014
2025-04-05 Altitude Running Invite 800m 2:27.73 14th · 2nd on team 126.8 -0.012 ★PR ★R SR RSR
2025-03-15 Murray Kula Invitational 400m 1:05.98 13th · 1st on team -0.008 SR

2024 TF 117.8

Thompson Valley (CO) · Grade 11

Date Meet Event Result Place Rating Difficulty PR/SR Flags
2024-05-10 HOKA St. Vrain Invitational 800m 2:38.91 85th · 4th on team 117.4 -0.015
2024-04-29 Randall Hess Roughrider Invitational 1600m 5:56.19 31st · 3rd on team 116.7 -0.014 PR SR
2024-04-04 Altitude Running Invitational 400m 1:08.43 27th · 3rd on team -0.009 SR
2024-03-22 Race results → 800m 2:34.13 22nd · 2nd on team 119.3 PR SR RSR

2023 TF 110.3

Thompson Valley (CO) · Grade 10

Date Meet Event Result Place Rating Difficulty PR/SR Flags
2023-05-05 Longs Peak/NCAC/Mile High League Meets 400m 1:04.2 7th · 2nd on team -0.015 ★PR SR
2023-04-28 Longmont Invitational 400m 1:06.11 23rd · 1st on team -0.015 PR SR
2023-04-14 KC Logan R2J Invitational 400m 1:06.91 4th · 1st on team -0.006 PR SR
2023-04-07 Birds of Prey Invitational 800m 2:52.16 9th · 3rd on team 110.3 +0.001 SR RSR
2023-03-24 Runners Roost of Fort Collins Invitational 400m 1:08.85 29th · 1st on team -0.011 PR SR

2022 TF 114.3

Thompson Valley (CO) · Grade 9

Date Meet Event Result Place Rating Difficulty PR/SR Flags
2022-05-07 Longs Peak/NCAC/Mile High League Meets 800m 2:37.23 16th · 1st on team 120.0 -0.015 PR SR RSR
2022-05-07 Longs Peak/NCAC/Mile High League Meets 1600m 5:56.57 8th · 3rd on team 117.8 -0.015 PR SR
2022-04-16 Mountain Range Mustang Invitational 1600m 6:11.34 28th · 3rd on team 113.7 -0.006 PR SR RSR
2022-04-02 University Bulldog Invitational 800m 2:45.81 15th · 2nd on team 113.6 -0.011 PR SR RSR
2022-03-25 Max Marr Invitational 800m 2:49.96 15th · 1st on team 111.7 -0.006 PR SR RSR
2022-03-19 Murray Kula Invitational 1600m 6:25.54 28th · 1st on team 109.2 -0.008 PR SR RSR